METAR Data
IDs: Format: Raw Decoded Include TAF

Data at: 1613 UTC 03 Dec 2021

BKPR 031600Z 36013KT 9999 -RA SCT008 BKN025 02/01 Q1010 NOSIG